createdAt,value
2018-02-12T00:00:20.439Z,20.63
2018-02-12T00:02:49.636Z,20.27
2018-02-12T00:05:18.770Z,19.00
2018-02-12T00:07:47.901Z,19.40
2018-02-12T00:10:17.077Z,19.43
2018-02-12T00:12:46.224Z,18.73
2018-02-12T00:15:15.360Z,17.70
2018-02-12T00:17:44.525Z,18.33
2018-02-12T00:20:13.705Z,18.47
2018-02-12T00:22:42.846Z,18.10
2018-02-12T00:25:12.117Z,16.87
2018-02-12T00:27:41.311Z,17.60
2018-02-12T00:30:10.430Z,16.77
2018-02-12T00:32:39.579Z,18.10
2018-02-12T00:35:09.085Z,18.33
2018-02-12T00:37:38.241Z,17.70
2018-02-12T00:40:07.445Z,17.60
2018-02-12T00:42:36.922Z,17.40
2018-02-12T00:45:06.064Z,18.10
2018-02-12T00:47:35.199Z,19.03
2018-02-12T00:50:04.362Z,18.80
2018-02-12T00:52:33.604Z,19.40
2018-02-12T00:55:02.777Z,21.40
2018-02-12T00:57:31.945Z,21.10
2018-02-12T01:00:01.109Z,20.10
2018-02-12T01:02:30.250Z,18.67
2018-02-12T01:04:59.394Z,19.27
2018-02-12T01:07:28.597Z,19.37
2018-02-12T01:09:57.733Z,19.20
2018-02-12T01:12:26.901Z,19.37
2018-02-12T01:14:56.063Z,19.10
2018-02-12T01:17:25.215Z,18.73
2018-02-12T01:19:54.385Z,18.30
2018-02-12T01:22:23.516Z,19.20
2018-02-12T01:24:52.653Z,18.83
2018-02-12T01:27:21.829Z,19.80
2018-02-12T01:29:50.981Z,19.10
2018-02-12T01:32:20.113Z,18.57
2018-02-12T01:34:49.268Z,20.50
2018-02-12T01:37:18.441Z,18.43
2018-02-12T01:39:47.645Z,20.97
2018-02-12T01:42:16.792Z,18.83
2018-02-12T01:44:45.929Z,19.90
2018-02-12T01:47:15.110Z,18.13
2018-02-12T01:49:44.248Z,18.53
2018-02-12T01:52:13.380Z,18.67
2018-02-12T01:54:42.741Z,18.97
2018-02-12T01:57:11.873Z,19.10
2018-02-12T01:59:41.014Z,17.63
2018-02-12T02:02:10.525Z,18.60
2018-02-12T02:04:39.661Z,17.70
2018-02-12T02:07:08.798Z,18.57
2018-02-12T02:09:37.964Z,18.27
2018-02-12T02:12:07.102Z,18.87
2018-02-12T02:14:36.242Z,17.93
2018-02-12T02:17:05.401Z,18.40
2018-02-12T02:19:34.555Z,18.53
2018-02-12T02:22:03.711Z,18.47
2018-02-12T02:24:32.876Z,18.00
2018-02-12T02:27:02.017Z,18.70
2018-02-12T02:29:31.156Z,18.47
2018-02-12T02:32:00.326Z,18.57
2018-02-12T02:34:29.461Z,18.20
2018-02-12T02:36:58.610Z,17.17
2018-02-12T02:39:27.768Z,18.53
2018-02-12T02:41:56.913Z,18.07
2018-02-12T02:44:26.050Z,18.10
2018-02-12T02:46:55.213Z,19.17
2018-02-12T02:49:24.353Z,18.63
2018-02-12T02:51:53.485Z,18.20
2018-02-12T02:54:22.950Z,17.90
2018-02-12T02:56:52.088Z,18.20
2018-02-12T02:59:21.232Z,19.70
2018-02-12T03:01:51.294Z,18.13
2018-02-12T03:04:20.442Z,18.97
2018-02-12T03:06:49.654Z,22.47
2018-02-12T03:09:18.765Z,18.47
2018-02-12T03:11:47.922Z,43.53
2018-02-12T03:14:17.058Z,19.60
2018-02-12T03:16:46.212Z,18.70
2018-02-12T03:19:15.384Z,17.43
2018-02-12T03:21:44.517Z,19.47
2018-02-12T03:24:13.644Z,16.73
2018-02-12T03:26:42.801Z,16.73
2018-02-12T03:29:11.935Z,17.00
2018-02-12T03:31:41.066Z,17.10
2018-02-12T03:34:10.243Z,16.97
2018-02-12T03:36:39.394Z,17.33
2018-02-12T03:39:08.543Z,17.93
2018-02-12T03:41:37.701Z,17.93
2018-02-12T03:44:06.850Z,17.30
2018-02-12T03:46:35.990Z,18.53
2018-02-12T03:49:05.189Z,17.60
2018-02-12T03:51:34.599Z,17.70
2018-02-12T03:54:03.733Z,17.30
2018-02-12T03:56:32.904Z,18.80
2018-02-12T03:59:02.052Z,19.03
2018-02-12T04:01:31.182Z,18.70
2018-02-12T04:04:00.365Z,20.30
2018-02-12T04:06:29.503Z,19.53
2018-02-12T04:08:58.994Z,19.67
2018-02-12T04:11:28.125Z,20.90
2018-02-12T04:13:57.325Z,20.07
2018-02-12T04:16:26.493Z,20.00
2018-02-12T04:18:55.637Z,20.70
2018-02-12T04:21:24.769Z,20.20
2018-02-12T04:23:53.935Z,20.27
2018-02-12T04:26:23.074Z,20.43
2018-02-12T04:28:52.209Z,21.00
2018-02-12T04:31:21.426Z,22.00
2018-02-12T04:33:50.523Z,21.00
2018-02-12T04:36:19.657Z,19.97
2018-02-12T04:38:48.811Z,20.10
2018-02-12T04:41:17.960Z,20.00
2018-02-12T04:43:47.094Z,20.70
2018-02-12T04:46:16.283Z,20.37
2018-02-12T04:48:45.423Z,22.30
2018-02-12T04:51:14.548Z,22.63
2018-02-12T04:53:43.733Z,22.43
2018-02-12T04:56:12.875Z,24.80
2018-02-12T04:58:42.022Z,20.93
2018-02-12T05:01:11.213Z,22.30
2018-02-12T05:03:40.361Z,20.63
2018-02-12T05:06:09.491Z,21.60
2018-02-12T05:08:38.653Z,21.17
2018-02-12T05:11:07.817Z,21.00
2018-02-12T05:13:36.958Z,21.20
2018-02-12T05:16:06.086Z,19.93
2018-02-12T05:18:35.256Z,20.73
2018-02-12T05:21:04.397Z,21.30
2018-02-12T05:23:33.542Z,20.60
2018-02-12T05:26:03.036Z,18.70
2018-02-12T05:28:32.168Z,20.30
2018-02-12T05:31:01.315Z,19.37
2018-02-12T05:33:30.468Z,19.70
2018-02-12T05:35:59.598Z,19.17
2018-02-12T05:38:28.737Z,18.37
2018-02-12T05:40:57.905Z,20.03
2018-02-12T05:43:27.036Z,20.50
2018-02-12T05:45:56.172Z,19.97
2018-02-12T05:48:25.335Z,21.23
2018-02-12T05:50:54.474Z,21.20
2018-02-12T05:53:23.625Z,20.50
2018-02-12T05:55:52.809Z,20.37
2018-02-12T05:58:21.937Z,20.83
2018-02-12T06:00:51.081Z,20.77
2018-02-12T06:03:20.278Z,20.77
2018-02-12T06:05:49.468Z,19.70
2018-02-12T06:08:18.613Z,20.60
2018-02-12T06:10:47.793Z,19.70
2018-02-12T06:13:16.930Z,20.03
2018-02-12T06:15:46.089Z,20.93
2018-02-12T06:18:15.244Z,20.37
2018-02-12T06:20:44.384Z,20.20
2018-02-12T06:23:13.869Z,20.00
2018-02-12T06:25:43.017Z,19.73
2018-02-12T06:28:12.142Z,20.13
2018-02-12T06:30:41.334Z,19.50
2018-02-12T06:33:10.514Z,19.63
2018-02-12T06:35:39.677Z,18.73
2018-02-12T06:38:08.817Z,19.73
2018-02-12T06:40:38.008Z,19.40
2018-02-12T06:43:07.151Z,19.50
2018-02-12T06:45:36.296Z,19.20
2018-02-12T06:48:05.480Z,19.97
2018-02-12T06:50:34.622Z,18.43
2018-02-12T06:53:03.783Z,20.03
2018-02-12T06:55:32.940Z,19.60
2018-02-12T06:58:02.120Z,18.90
2018-02-12T07:00:31.276Z,20.57
2018-02-12T07:03:00.414Z,20.80
2018-02-12T07:05:29.560Z,20.07
2018-02-12T07:07:58.737Z,20.40
2018-02-12T07:10:27.879Z,19.67
2018-02-12T07:12:57.029Z,19.60
2018-02-12T07:15:26.221Z,20.20
2018-02-12T07:17:55.363Z,19.83
2018-02-12T07:20:24.615Z,22.07
2018-02-12T07:22:53.788Z,22.30
2018-02-12T07:25:22.934Z,23.80
2018-02-12T07:27:52.101Z,20.33
2018-02-12T07:30:21.254Z,23.80
2018-02-12T07:32:50.397Z,21.50
2018-02-12T07:35:19.564Z,21.33
2018-02-12T07:37:48.704Z,19.70
2018-02-12T07:40:17.869Z,19.57
2018-02-12T07:42:47.025Z,20.70
2018-02-12T07:45:16.166Z,21.60
2018-02-12T07:47:45.333Z,19.90
2018-02-12T07:50:14.481Z,21.10
2018-02-12T07:52:43.631Z,20.60
2018-02-12T07:55:12.809Z,21.37
2018-02-12T07:57:41.944Z,20.70
2018-02-12T08:00:11.462Z,19.70
2018-02-12T08:02:40.630Z,18.77
2018-02-12T08:05:09.769Z,19.27
2018-02-12T08:07:38.957Z,19.13
2018-02-12T08:10:08.233Z,24.60
2018-02-12T08:12:37.362Z,18.40
2018-02-12T08:15:06.519Z,19.30
2018-02-12T08:17:35.708Z,20.27
2018-02-12T08:20:04.849Z,19.80
2018-02-12T08:22:33.994Z,19.43
2018-02-12T08:25:03.177Z,20.27
2018-02-12T08:27:32.370Z,27.13
2018-02-12T08:30:01.509Z,21.07
2018-02-12T08:32:30.650Z,20.60
2018-02-12T08:34:59.809Z,21.40
2018-02-12T08:37:28.954Z,22.10
2018-02-12T08:39:58.086Z,21.73
2018-02-12T08:42:27.263Z,23.90
2018-02-12T08:44:56.741Z,22.67
2018-02-12T08:47:25.882Z,24.73
2018-02-12T08:49:55.031Z,25.43
2018-02-12T08:52:24.191Z,26.97
2018-02-12T08:54:53.339Z,25.90
2018-02-12T08:57:22.471Z,27.97
2018-02-12T08:59:51.656Z,28.67
2018-02-12T09:02:20.805Z,28.10
2018-02-12T09:04:49.942Z,26.83
2018-02-12T09:07:19.108Z,27.40
2018-02-12T09:09:48.251Z,27.23
2018-02-12T09:12:17.397Z,26.80
2018-02-12T09:14:46.557Z,26.33
2018-02-12T09:17:15.694Z,24.10
2018-02-12T09:19:44.821Z,26.07
2018-02-12T09:22:14.013Z,25.90
2018-02-12T09:24:43.159Z,26.10
2018-02-12T09:27:12.296Z,24.50
2018-02-12T09:29:41.855Z,24.87
2018-02-12T09:32:11.001Z,26.13
2018-02-12T09:34:40.145Z,26.13
2018-02-12T09:37:09.353Z,28.70
2018-02-12T09:39:38.481Z,33.83
2018-02-12T09:42:07.674Z,30.30
2018-02-12T09:44:36.820Z,35.63
2018-02-12T09:47:05.966Z,40.03
2018-02-12T09:49:35.137Z,38.07
2018-02-12T09:52:04.274Z,40.20
2018-02-12T09:54:33.413Z,36.97
2018-02-12T09:57:02.570Z,44.20
2018-02-12T09:59:31.713Z,119.77
2018-02-12T10:02:00.855Z,41.63
2018-02-12T10:04:30.038Z,44.83
2018-02-12T10:06:59.188Z,47.77
2018-02-12T10:09:28.340Z,39.70
2018-02-12T10:11:57.510Z,38.80
2018-02-12T10:14:26.650Z,45.80
2018-02-12T10:16:55.780Z,38.67
2018-02-12T10:19:24.945Z,38.33
2018-02-12T10:21:54.546Z,37.23
2018-02-12T10:24:23.677Z,39.43
2018-02-12T10:26:52.847Z,31.80
2018-02-12T10:29:22.058Z,44.57
2018-02-12T10:31:51.202Z,35.07
2018-02-12T10:34:20.333Z,40.80
2018-02-12T10:36:49.502Z,41.50
2018-02-12T10:39:18.637Z,45.87
2018-02-12T10:41:47.810Z,46.20
2018-02-12T10:44:16.942Z,49.33
2018-02-12T10:46:46.089Z,46.87
2018-02-12T10:49:15.253Z,52.07
2018-02-12T10:51:44.398Z,57.40
2018-02-12T10:54:13.537Z,54.80
2018-02-12T10:56:42.755Z,56.03
2018-02-12T10:59:11.893Z,53.83
2018-02-12T11:01:41.356Z,62.73
2018-02-12T11:04:10.506Z,56.00
2018-02-12T11:06:39.653Z,215.57
2018-02-12T11:09:08.892Z,54.80
2018-02-12T11:11:38.043Z,50.33
2018-02-12T11:14:07.186Z,51.93
2018-02-12T11:16:36.354Z,53.00
2018-02-12T11:19:05.505Z,52.20
2018-02-12T11:21:34.637Z,57.93
2018-02-12T11:24:03.815Z,56.90
2018-02-12T11:26:32.956Z,54.40
2018-02-12T11:29:02.130Z,68.10
2018-02-12T11:31:31.289Z,58.20
2018-02-12T11:34:00.435Z,57.00
2018-02-12T11:36:29.631Z,52.10
2018-02-12T11:38:58.801Z,56.93
2018-02-12T11:41:27.984Z,54.10
2018-02-12T11:43:57.138Z,52.90
2018-02-12T11:46:26.277Z,49.10
2018-02-12T11:48:55.458Z,55.40
2018-02-12T11:51:24.596Z,50.90
2018-02-12T11:53:53.747Z,64.47
2018-02-12T11:56:22.976Z,64.53
2018-02-12T11:58:52.164Z,73.87
2018-02-12T12:01:21.304Z,74.80
2018-02-12T12:03:50.484Z,81.03
2018-02-12T12:06:19.653Z,80.53
2018-02-12T12:08:48.801Z,73.57
2018-02-12T12:11:17.942Z,71.80
2018-02-12T12:13:47.130Z,71.07
2018-02-12T12:16:16.297Z,71.10
2018-02-12T12:18:45.445Z,66.50
2018-02-12T12:21:14.589Z,66.70
2018-02-12T12:23:43.789Z,74.30
2018-02-12T12:26:12.953Z,82.73
2018-02-12T12:28:42.090Z,92.77
2018-02-12T12:31:11.292Z,66.97
2018-02-12T12:33:40.417Z,52.00
2018-02-12T12:36:09.565Z,71.00
2018-02-12T12:38:38.700Z,45.63
2018-02-12T12:41:07.843Z,50.80
2018-02-12T12:43:37.025Z,42.70
2018-02-12T12:46:06.206Z,40.70
2018-02-12T12:48:35.353Z,42.30
2018-02-12T12:51:04.497Z,52.17
2018-02-12T12:53:33.657Z,42.13
2018-02-12T12:56:02.799Z,45.00
2018-02-12T12:58:31.974Z,47.13
2018-02-12T13:01:01.116Z,44.77
2018-02-12T13:03:30.247Z,46.13
2018-02-12T13:05:59.508Z,45.80
2018-02-12T13:08:28.655Z,45.87
2018-02-12T13:10:57.794Z,43.10
2018-02-12T13:13:26.981Z,45.40
2018-02-12T13:15:56.114Z,47.70
2018-02-12T13:18:25.255Z,48.53
2018-02-12T13:20:54.417Z,28.33
2018-02-12T13:23:23.561Z,30.73
2018-02-12T13:25:52.704Z,17.10
2018-02-12T13:28:21.871Z,24.60
2018-02-12T13:30:51.003Z,17.00
2018-02-12T13:33:20.198Z,16.77
2018-02-12T13:35:49.321Z,34.80
2018-02-12T13:38:18.473Z,119.53
2018-02-12T13:40:47.643Z,236.77
2018-02-12T13:43:16.796Z,209.97
2018-02-12T13:45:45.967Z,178.20
2018-02-12T13:48:15.264Z,144.20
2018-02-12T13:50:44.413Z,104.30
2018-02-12T13:53:13.573Z,95.97
2018-02-12T13:55:42.789Z,109.57
2018-02-12T13:58:11.921Z,99.83
2018-02-12T14:00:41.069Z,94.63
2018-02-12T14:03:10.242Z,87.27
2018-02-12T14:05:39.381Z,83.83
2018-02-12T14:08:08.543Z,97.10
2018-02-12T14:10:37.715Z,86.93
2018-02-12T14:13:06.860Z,87.77
2018-02-12T14:15:36.010Z,78.70
2018-02-12T14:18:05.192Z,83.43
2018-02-12T14:20:34.355Z,92.60
2018-02-12T14:23:03.510Z,73.30
2018-02-12T14:25:32.729Z,82.73
2018-02-12T14:28:01.892Z,80.67
2018-02-12T14:30:31.679Z,106.07
2018-02-12T14:33:00.833Z,75.93
2018-02-12T14:35:29.973Z,73.57
2018-02-12T14:37:59.117Z,58.47
2018-02-12T14:40:28.298Z,50.60
2018-02-12T14:42:57.433Z,44.57
2018-02-12T14:45:26.614Z,46.20
2018-02-12T14:47:55.833Z,48.47
2018-02-12T14:50:25.037Z,48.93
2018-02-12T14:52:54.242Z,42.87
2018-02-12T14:55:23.379Z,44.37
2018-02-12T14:57:52.513Z,44.67
2018-02-12T15:00:21.676Z,44.13
2018-02-12T15:02:50.813Z,44.37
2018-02-12T15:05:19.952Z,43.30
2018-02-12T15:07:49.145Z,44.57
2018-02-12T15:10:18.316Z,65.63
2018-02-12T15:12:47.493Z,44.90
2018-02-12T15:15:16.652Z,41.90
2018-02-12T15:17:45.792Z,40.40
2018-02-12T15:20:15.456Z,56.80
2018-02-12T15:22:44.599Z,96.57
2018-02-12T15:25:13.741Z,33.50
2018-02-12T15:27:42.917Z,34.23
2018-02-12T15:30:12.064Z,28.73
2018-02-12T15:32:41.216Z,29.30
2018-02-12T15:35:10.723Z,27.80
2018-02-12T15:37:39.868Z,26.13
2018-02-12T15:40:09.005Z,24.30
2018-02-12T15:42:38.177Z,74.70
2018-02-12T15:45:07.324Z,26.50
2018-02-12T15:47:36.481Z,101.80
2018-02-12T15:50:05.665Z,85.67
2018-02-12T15:52:34.799Z,79.50
2018-02-12T15:55:03.942Z,20.30
2018-02-12T15:57:33.113Z,20.90
2018-02-12T16:00:02.276Z,19.50
2018-02-12T16:02:31.529Z,21.13
2018-02-12T16:05:00.669Z,21.87
2018-02-12T16:07:29.806Z,21.90
2018-02-12T16:09:58.959Z,21.20
2018-02-12T16:12:28.106Z,22.43
2018-02-12T16:14:57.253Z,23.03
2018-02-12T16:17:26.441Z,21.80
2018-02-12T16:19:55.589Z,23.73
2018-02-12T16:22:24.721Z,24.90
2018-02-12T16:24:53.906Z,29.93
2018-02-12T16:27:23.064Z,29.70
2018-02-12T16:29:52.217Z,33.20
2018-02-12T16:32:21.362Z,35.73
2018-02-12T16:34:50.500Z,38.77
2018-02-12T16:37:19.672Z,42.07
2018-02-12T16:39:48.814Z,43.17
2018-02-12T16:42:17.957Z,39.30
2018-02-12T16:44:47.154Z,40.70
2018-02-12T16:47:16.305Z,38.83
2018-02-12T16:49:45.468Z,41.30
2018-02-12T16:52:14.625Z,42.07
2018-02-12T16:57:06.026Z,42.30
2018-02-12T16:59:35.165Z,42.70
2018-02-12T17:02:04.319Z,44.90
2018-02-12T17:04:33.562Z,43.00
2018-02-12T17:07:02.733Z,46.20
2018-02-12T17:09:31.873Z,44.50
2018-02-12T17:12:01.042Z,42.90
2018-02-12T17:14:30.173Z,39.67
2018-02-12T17:16:59.323Z,38.90
2018-02-12T17:19:28.494Z,37.87
2018-02-12T17:21:57.635Z,38.47
2018-02-12T17:24:26.774Z,36.90
2018-02-12T17:26:56.289Z,38.03
2018-02-12T17:29:25.431Z,37.30
2018-02-12T17:31:54.601Z,37.47
2018-02-12T17:34:23.760Z,33.60
2018-02-12T17:36:53.098Z,34.53
2018-02-12T17:39:22.269Z,34.40
2018-02-12T17:41:51.442Z,34.07
2018-02-12T17:44:20.570Z,34.67
2018-02-12T17:46:49.708Z,34.20
2018-02-12T17:49:18.952Z,32.80
2018-02-12T17:51:48.053Z,37.70
2018-02-12T17:54:17.214Z,38.23
2018-02-12T17:56:46.388Z,37.23
2018-02-12T17:59:15.534Z,39.90
2018-02-12T18:01:44.678Z,39.13
2018-02-12T18:04:13.856Z,32.20
2018-02-12T18:06:42.996Z,34.17
2018-02-12T18:09:12.133Z,27.80
2018-02-12T18:11:41.663Z,25.20
2018-02-12T18:14:10.812Z,26.90
2018-02-12T18:16:39.946Z,29.37
2018-02-12T18:19:09.125Z,31.23
2018-02-12T18:21:38.261Z,32.13
2018-02-12T18:24:07.403Z,36.00
2018-02-12T18:26:36.575Z,37.27
2018-02-12T18:29:05.722Z,37.50
2018-02-12T18:31:34.903Z,44.80
2018-02-12T18:34:04.047Z,44.00
2018-02-12T18:36:33.213Z,44.90
2018-02-12T18:39:02.400Z,43.70
2018-02-12T18:41:31.543Z,49.57
2018-02-12T18:44:00.727Z,48.57
2018-02-12T18:46:29.897Z,47.73
2018-02-12T18:51:47.749Z,45.10
2018-02-12T18:54:16.892Z,49.40
2018-02-12T18:56:46.041Z,42.10
2018-02-12T18:59:15.236Z,36.30
2018-02-12T19:01:44.382Z,37.20
2018-02-12T19:04:13.530Z,34.70
2018-02-12T19:06:42.671Z,33.80
2018-02-12T19:09:11.805Z,34.83
2018-02-12T19:11:40.981Z,32.17
2018-02-12T19:14:10.117Z,33.87
2018-02-12T19:16:39.248Z,33.80
2018-02-12T19:19:08.756Z,33.40
2018-02-12T19:21:37.908Z,33.80
2018-02-12T19:24:07.065Z,34.77
2018-02-12T19:26:36.226Z,34.80
2018-02-12T19:29:05.362Z,37.17
2018-02-12T19:31:34.515Z,36.67
2018-02-12T19:34:03.697Z,35.70
2018-02-12T19:36:32.843Z,39.23
2018-02-12T19:39:01.984Z,40.37
2018-02-12T19:41:31.162Z,37.63
2018-02-12T19:44:00.309Z,39.60
2018-02-12T19:46:29.485Z,42.10
2018-02-12T19:48:58.656Z,42.43
2018-02-12T19:51:27.807Z,42.30
2018-02-12T19:53:56.954Z,41.40
2018-02-12T19:56:26.180Z,37.80
2018-02-12T19:58:55.328Z,41.47
2018-02-12T20:01:24.481Z,36.87
2018-02-12T20:03:53.655Z,39.57
2018-02-12T20:06:22.792Z,39.03
2018-02-12T20:08:51.949Z,43.67
2018-02-12T20:11:21.116Z,37.30
2018-02-12T20:13:50.262Z,41.20
2018-02-12T20:16:19.439Z,41.33
2018-02-12T20:18:48.613Z,43.40
2018-02-12T20:21:17.744Z,46.40
2018-02-12T20:23:46.886Z,45.27
2018-02-12T20:26:16.247Z,42.87
2018-02-12T20:28:45.406Z,42.13
2018-02-12T20:31:14.554Z,38.40
2018-02-12T20:33:43.741Z,39.83
2018-02-12T20:36:12.954Z,38.50
2018-02-12T20:38:42.132Z,39.00
2018-02-12T20:41:11.297Z,38.63
2018-02-12T20:43:40.433Z,43.97
2018-02-12T20:46:09.633Z,36.50
2018-02-12T20:48:38.801Z,34.67
2018-02-12T20:51:07.993Z,34.80
2018-02-12T20:53:37.145Z,34.10
2018-02-12T20:56:06.287Z,32.70
2018-02-12T20:58:35.448Z,36.00
2018-02-12T21:01:04.595Z,34.90
2018-02-12T21:03:33.730Z,35.30
2018-02-12T21:06:03.274Z,32.77
2018-02-12T21:08:32.409Z,32.93
2018-02-12T21:11:01.560Z,32.03
2018-02-12T21:13:30.735Z,33.70
2018-02-12T21:15:59.887Z,33.13
2018-02-12T21:18:29.044Z,34.40
2018-02-12T21:20:58.250Z,31.63
2018-02-12T21:23:27.401Z,37.10
2018-02-12T21:25:56.551Z,36.90
2018-02-12T21:28:25.725Z,36.03
2018-02-12T21:30:54.873Z,33.80
2018-02-12T21:33:24.089Z,32.67
2018-02-12T21:35:53.247Z,32.10
2018-02-12T21:38:22.405Z,38.97
2018-02-12T21:40:51.574Z,38.03
2018-02-12T21:43:20.722Z,37.80
2018-02-12T21:45:49.882Z,40.60
2018-02-12T21:48:19.057Z,35.37
2018-02-12T21:50:48.197Z,34.90
2018-02-12T21:53:17.334Z,30.13
2018-02-12T21:55:46.914Z,33.40
2018-02-12T21:58:16.051Z,30.90
2018-02-12T22:00:45.209Z,30.50
2018-02-12T22:03:14.385Z,36.40
2018-02-12T22:05:43.522Z,35.37
2018-02-12T22:08:12.669Z,35.43
2018-02-12T22:10:41.861Z,37.90
2018-02-12T22:13:11.005Z,36.70
2018-02-12T22:15:40.161Z,36.10
2018-02-12T22:18:09.326Z,34.40
2018-02-12T22:20:38.511Z,32.87
2018-02-12T22:23:07.655Z,34.07
2018-02-12T22:25:36.802Z,31.80
2018-02-12T22:28:05.988Z,35.60
2018-02-12T22:30:35.190Z,35.23
2018-02-12T22:33:04.369Z,36.43
2018-02-12T22:35:33.551Z,34.70
2018-02-12T22:38:02.717Z,32.80
2018-02-12T22:40:32.447Z,32.63
2018-02-12T22:43:01.619Z,33.50
2018-02-12T22:45:30.763Z,30.80
2018-02-12T22:47:59.940Z,31.90
2018-02-12T22:50:29.078Z,31.37
2018-02-12T22:52:58.220Z,30.30
2018-02-12T22:55:27.413Z,31.60
2018-02-12T22:57:56.546Z,36.27
2018-02-12T23:00:25.752Z,34.10
2018-02-12T23:02:54.970Z,33.73
2018-02-12T23:05:24.109Z,32.77
2018-02-12T23:07:53.304Z,32.03
2018-02-12T23:10:22.442Z,28.23
2018-02-12T23:12:51.582Z,34.90
2018-02-12T23:15:26.483Z,32.60
2018-02-12T23:17:55.630Z,34.17
2018-02-12T23:20:24.825Z,31.70
2018-02-12T23:22:54.026Z,30.10
2018-02-12T23:25:23.206Z,28.47
2018-02-12T23:27:52.336Z,29.40
2018-02-12T23:30:21.519Z,31.80
2018-02-12T23:32:50.654Z,29.37
2018-02-12T23:35:19.787Z,31.53
2018-02-12T23:37:49.309Z,31.30
2018-02-12T23:40:18.445Z,30.03
2018-02-12T23:42:47.605Z,31.87
2018-02-12T23:45:16.852Z,30.03
2018-02-12T23:47:46.006Z,31.57
2018-02-12T23:50:15.156Z,33.43
2018-02-12T23:52:44.351Z,32.90
2018-02-12T23:55:13.520Z,30.80
2018-02-12T23:57:42.662Z,33.47
